x

Gulf Of Maine - 78 Nm East Of Portsmouth, Nh (44005) Wave Buoy

3:50 - Tue 3rd Mar 2015 All times are EST. -5 hours from GMT.

  • Sig Wave height 6.9ft
  • Peak Period 7s
  • Average Period 5s
  • Wind
    22mph, 27mph gusts
  • Sea Temp 38°f
  • Aire Temp 24°f
  • Sea Pressure 1023.5mb
  • Gulf Of Maine - 78 Nm East Of Portsmouth, Nh
  • Gulf Of Maine - 78 Nm East Of Portsmouth, Nh

More Historic Weather Station data

Upgrade to MSW Pro to gain access to the past 30 days of data for over 8000 Wavebouys and Weather Stations around the globe.

Join Pro

Comparision Forecast

View Surf forecast
   
mar 03/03 3:50 7ft 7s 5s 22 27 mph 1023.5mb 38f 24f
2:50 8ft 7s 6s 22 29 mph 1022.7mb 38f 24f
1:50 9ft 7s 6s 25 31 mph 1022.1mb 38f 25f
12:50 10ft 7s 6s 25 31 mph 1021.1mb 39f 26f
lun 03/02 11:50 10ft 7s 5s 27 36 mph 1019.2mb 39f 27f
10:50 9ft 7s 5s 34 40 mph 1017.9mb 39f 28f
9:50 9ft 7s 5s 38 45 mph 1016.5mb 39f 30f
8:50 9ft 7s 5s 31 38 mph 1016.1mb 39f 31f
7:50 10.5ft 7s 6s 31 38 mph 1015.2mb 39f 31f
6:50 9ft 7s 5s 36 43 mph 1013.6mb 39f 33f
5:50 9ft 7s 6s 29 38 mph 1012.7mb 39f 33f
4:50 9ft 7s 5s 31 38 mph 1011.2mb 39f 33f
3:50 7.5ft 5s 5s 36 43 mph 1009.8mb 39f 34f
2:50 5ft 5s 4s 29 36 mph 1009.4mb 39f 35f
1:50 4ft 4s 4s 29 38 mph 1008.8mb 39f 34f
12:50 3ft 4s 4s 22 29 mph 1009.5mb 39f 32f
11:50 3ft 4s 4s 13 20 mph 1010.2mb 39f 29f
10:50 3ft 4s 4s 16 20 mph 1010.1mb 39f 30f
9:50 3ft 4s 4s 16 20 mph 1010mb 39f 30f
8:50 3.5ft 6s 4s 18 22 mph 1010mb 39f 31f
7:50 3.5ft 6s 4s 13 18 mph 1010.3mb 39f 31f
6:50 4ft 6s 4s 18 20 mph 1010.5mb 39f 31f
5:50 4ft 6s 4s 16 20 mph 1011.1mb 39f 31f
4:50 4.5ft 6s 4s 18 20 mph 1011.7mb 39f 31f
3:50 4.5ft 6s 5s 16 22 mph 1012.3mb 39f 32f
2:50 5ft 6s 5s 18 22 mph 1013.3mb 39f 33f
1:50 4.5ft 6s 5s 18 22 mph 1015.3mb 39f 34f
12:50 4.5ft 6s 5s 18 27 mph 1017.1mb 39f 34f
dom 03/01 11:50 5ft 6s 5s 20 27 mph 1018.4mb 39f 34f
10:50 5ft 6s 5s 18 25 mph 1020.2mb 39f 33f
9:50 5.5ft 6s 5s 20 27 mph 1021.5mb 39f 33f
8:50 6ft 6s 5s 22 27 mph 1023.3mb 39f 32f
7:50 5ft 6s 5s 22 27 mph 1024.5mb 39f 31f
6:50 5ft 5s 4s 20 25 mph 1026mb 39f 31f
5:50 4.5ft 5s 4s 22 29 mph 1027.3mb 39f 31f
4:50 3.5ft 5s 4s 20 25 mph 1028.6mb 39f 32f
3:50 3.5ft 4s 4s 18 22 mph 1029.8mb 39f 30f
2:50 3ft 4s 4s 20 22 mph 1030.6mb 39f 32f
1:50 2.5ft 9s 4s 16 20 mph 1031.2mb 39f 32f
12:50 2.5ft 8s 4s 18 20 mph 1032.5mb 39f 32f
11:50 2ft 9s 4s 13 16 mph 1034.4mb 39f 33f
10:50 2ft 9s 5s 11 13 mph 1035.1mb 39f 33f
9:50 2ft 9s 5s 11 16 mph 1036mb 39f 33f
8:50 2ft 8s 5s  -  4 mph 1036.9mb 39f 32f
7:50 1.6ft 10s 4s 2 7 mph 1037.1mb 39f 30f
6:50 2ft 9s 4s 4 7 mph 1036.8mb 39f 30f
5:50 2ft 10s 5s 7 9 mph 1037.2mb 40f 30f
4:50 2.5ft 10s 4s 2 9 mph 1037.6mb 40f 30f
3:50 2.5ft 10s 5s 7 11 mph 1037.8mb 40f 31f
2:50 2.5ft 9s 5s 9 13 mph 1037.4mb 39f 31f
1:50 2.5ft 8s 4s 11 16 mph 1038.1mb 39f 32f
12:50 3ft 9s 5s 11 16 mph 1037.7mb 39f 32f
sáb 02/28 11:50 3.5ft 9s 5s 13 18 mph 1037.5mb 39f 32f
10:50 3ft 9s 5s 11 16 mph 1037.7mb 39f 32f
9:50  -   -   -  11
mph
- - -
8:50 2.5ft 10s 5s 11 16 mph 1038mb 39f 31f
7:50 2.5ft 10s 5s 11 16 mph 1037.8mb 39f 29f
6:50 2.5ft 11s 5s 9 13 mph 1037.9mb 39f 28f
5:50 2.5ft 11s 5s 13 18 mph 1037.6mb 39f 27f
4:50 2.5ft 10s 6s 13 18 mph 1037.6mb 39f 28f
3:50 2.5ft 9s 6s 7 11 mph 1037.9mb 39f 26f
2:50 3.5ft 10s 6s 7 9 mph 1038.1mb 40f 26f
1:50 3.5ft 10s 6s 4 9 mph 1038.3mb 40f 25f
12:50 3.5ft 11s 6s 2 7 mph 1038.8mb 40f 24f
11:50 4ft 10s 7s 2 7 mph 1039.4mb 39f 23f
10:50 4.5ft 10s 7s  -  4 mph 1039.5mb 39f 23f
9:50 4ft 9s 6s 2 9 mph 1039mb 39f 23f
8:50 4.5ft 9s 6s 2 9 mph 1038.8mb 39f 23f
6:50 5ft 11s 5s 9 13 mph 1036.9mb 39f 22f
5:50 5ft 5s 5s 13 18 mph 1036.2mb 39f 22f
4:50 5ft 10s 5s 16 22 mph 1035.3mb 39f 23f
3:50 5ft 10s 6s 16 22 mph 1034.1mb 39f 24f
2:50 5.5ft 11s 5s 13 20 mph 1033.6mb 39f 24f
1:50  -   -   -  13
mph
- - 25f
12:50 5ft 10s 7s 16 20 mph 1032.2mb 39f 26f
vie 02/27 11:50 5ft 11s 7s 11 18 mph 1031.2mb 39f 27f
10:50  -   -   -  13 18 mph 1030.6mb 39f 27f
9:50 5.5ft 11s 8s 9 16 mph 1030.1mb 39f 27f
8:50 5ft 10s 8s 9 13 mph 1029.7mb 39f 26f
7:50 6ft 11s 8s 11 16 mph 1029.2mb 39f 25f
6:50 5ft 10s 8s 11 16 mph 1028.8mb 39f 24f
5:50 5ft 11s 8s 9 13 mph 1027.9mb 39f 23f
4:50 4ft 11s 7s 11 16 mph 1027.3mb 39f 23f
3:50 5ft 12s 8s 7 13 mph 1026.8mb 39f 22f
2:50  -   -   -  7
mph
1026.6mb 39f 21f
1:50 5ft 13s 8s 2 7 mph 1026.5mb 39f 20f
12:50 5ft 12s 7s 7 11 mph 1026.2mb 39f 19f
11:50 6ft 11s 8s 7 13 mph 1026.1mb 39f 19f
10:50 5.5ft 11s 7s 9 11 mph 1026.2mb 39f 19f
9:50 5ft 10s 7s 11 16 mph 1025.9mb 39f 19f